Time;durP1;ratioP1;P1;durP2;ratioP2;P2;SDS_P1;SDS_P2;PMS_P1;PMS_P2;Temp;Humidity;BMP_temperature;BMP_pressure;BME280_temperature;BME280_humidity;BME280_pressure;Samples;Min_cycle;Max_cycle;Signal;HPM_P1;HPM_P2
2023/12/25 00:01:08;;;;;;;2.87;1.50;;;9.40;99.90;;;9.70;100.00;97581.09;5046445;28;20472;-85
2023/12/25 00:03:37;;;;;;;4.20;1.47;;;9.30;99.90;;;9.71;100.00;97585.31;5048720;28;20896;-85
2023/12/25 00:06:19;;;;;;;6.97;2.10;;;9.40;99.90;;;9.73;100.00;97588.53;5047602;28;20536;-85
2023/12/25 00:08:51;;;;;;;3.67;1.23;;;9.30;99.90;;;9.73;100.00;97579.88;5044406;28;21041;-84
2023/12/25 00:11:21;;;;;;;3.27;1.20;;;9.30;99.90;;;9.76;100.00;97584.72;5045818;28;20536;-85
2023/12/25 00:13:52;;;;;;;4.40;1.70;;;9.40;99.90;;;9.73;100.00;97577.28;5044103;28;20963;-85
2023/12/25 00:16:20;;;;;;;4.83;1.27;;;9.40;99.90;;;9.74;100.00;97577.09;5044844;28;20521;-85
2023/12/25 00:18:49;;;;;;;3.23;1.67;;;9.40;99.90;;;9.74;100.00;97569.25;5044395;28;20881;-85
2023/12/25 00:21:19;;;;;;;7.03;2.23;;;9.30;99.90;;;9.76;100.00;97576.88;5047681;28;20469;-85
2023/12/25 00:23:48;;;;;;;1.70;1.20;;;9.40;99.90;;;9.77;100.00;97570.66;5045089;28;20523;-85
2023/12/25 00:26:16;;;;;;;7.80;1.73;;;9.40;99.90;;;9.78;100.00;97575.72;5046765;28;20469;-85
2023/12/25 00:28:45;;;;;;;3.00;1.20;;;9.40;99.90;;;9.78;100.00;97580.13;5045718;28;21007;-84
2023/12/25 00:31:14;;;;;;;6.90;1.40;;;9.40;99.90;;;9.71;100.00;97579.28;5044134;28;20460;-85
2023/12/25 00:33:42;;;;;;;6.77;1.67;;;9.20;99.90;;;9.75;100.00;97572.69;5046846;28;20523;-85
2023/12/25 00:36:12;;;;;;;3.13;1.43;;;9.30;99.90;;;9.78;100.00;97567.06;5050846;28;20492;-85
2023/12/25 00:38:43;;;;;;;6.07;1.80;;;9.40;99.90;;;9.75;100.00;97562.25;5050105;28;20960;-85
2023/12/25 00:41:11;;;;;;;5.13;1.43;;;9.30;99.90;;;9.76;100.00;97563.81;5050779;28;20461;-84
2023/12/25 00:43:40;;;;;;;2.17;1.23;;;9.30;99.90;;;9.74;100.00;97564.03;5050948;28;20473;-85
2023/12/25 00:46:08;;;;;;;2.43;1.50;;;9.30;99.90;;;9.77;100.00;97573.28;5050603;28;20794;-85
2023/12/25 00:48:37;;;;;;;1.90;1.33;;;9.30;99.90;;;9.78;100.00;97569.69;5051344;28;20477;-85
2023/12/25 00:51:06;;;;;;;6.53;2.27;;;9.40;99.90;;;9.78;100.00;97560.03;5053779;28;20456;-85
2023/12/25 00:53:34;;;;;;;2.90;1.57;;;9.40;99.90;;;9.81;100.00;97548.41;5052896;28;21120;-85
2023/12/25 00:56:06;;;;;;;2.80;1.17;;;9.40;99.90;;;9.82;100.00;97556.03;5050720;28;20535;-84
2023/12/25 00:58:34;;;;;;;6.87;1.70;;;9.40;99.90;;;9.84;100.00;97558.47;5048807;28;20534;-85
2023/12/25 01:01:03;;;;;;;3.00;1.27;;;9.40;99.90;;;9.83;100.00;97559.44;5046232;28;20458;-85
2023/12/25 01:03:31;;;;;;;2.70;1.70;;;9.50;99.90;;;9.84;100.00;97561.06;5049893;28;20485;-85
2023/12/25 01:06:00;;;;;;;7.90;1.40;;;9.50;99.90;;;9.80;100.00;97578.13;5047362;28;20453;-85
2023/12/25 01:08:28;;;;;;;6.20;1.30;;;9.40;99.90;;;9.84;100.00;97579.34;5047850;28;20913;-85
2023/12/25 01:10:57;;;;;;;8.77;1.20;;;9.40;99.90;;;9.87;100.00;97577.16;5048405;28;20465;-85
2023/12/25 01:13:27;;;;;;;17.03;1.90;;;9.40;99.90;;;9.84;100.00;97574.13;5047722;28;20544;-85
2023/12/25 01:15:56;;;;;;;2.37;1.27;;;9.50;99.90;;;9.84;100.00;97577.53;5047235;28;20548;-85
2023/12/25 01:18:24;;;;;;;1.87;1.10;;;9.50;99.90;;;9.83;100.00;97567.28;5051628;28;20831;-85
2023/12/25 01:20:53;;;;;;;3.53;1.43;;;9.50;99.90;;;9.84;100.00;97563.69;5050188;28;20492;-85
2023/12/25 01:23:22;;;;;;;2.40;1.30;;;9.50;99.90;;;9.86;100.00;97577.34;5049281;28;20483;-85
2023/12/25 01:25:50;;;;;;;8.43;1.50;;;9.50;99.90;;;9.87;100.00;97581.56;5050877;28;20560;-85
2023/12/25 01:28:19;;;;;;;5.13;1.33;;;9.40;99.90;;;9.87;100.00;97581.56;5052788;28;20831;-85
2023/12/25 01:30:49;;;;;;;4.73;1.40;;;9.40;99.90;;;9.89;100.00;97577.75;5048531;28;20469;-85
2023/12/25 01:33:17;;;;;;;4.00;1.10;;;9.40;99.90;;;9.90;100.00;97581.97;5050050;28;20460;-85
2023/12/25 01:35:46;;;;;;;3.17;1.27;;;9.50;99.90;;;9.90;100.00;97589.00;5050098;28;20465;-85
2023/12/25 01:38:15;;;;;;;5.03;1.20;;;9.50;99.90;;;9.90;100.00;97581.16;5049133;28;20856;-85
2023/12/25 01:40:45;;;;;;;3.13;1.10;;;9.50;99.90;;;9.89;100.00;97571.75;5049974;28;20473;-85
2023/12/25 01:43:13;;;;;;;5.93;1.40;;;9.40;99.90;;;9.91;100.00;97574.97;5053008;28;20571;-84
2023/12/25 01:45:42;;;;;;;1.63;1.10;;;9.40;99.90;;;9.92;100.00;97581.81;5050138;28;20456;-85
2023/12/25 01:48:13;;;;;;;3.97;1.50;;;9.50;99.90;;;9.92;100.00;97576.59;5045753;28;20473;-85
2023/12/25 01:50:42;;;;;;;3.00;1.90;;;9.50;99.90;;;9.94;100.00;97583.22;5048518;28;20465;-84
2023/12/25 01:53:11;;;;;;;4.70;1.27;;;9.60;99.90;;;9.94;100.00;97585.00;5048948;28;20473;-85
2023/12/25 01:55:40;;;;;;;4.50;1.20;;;9.60;99.90;;;9.97;100.00;97587.22;5047029;28;20472;-85
2023/12/25 01:58:09;;;;;;;1.83;1.10;;;9.50;99.90;;;9.93;100.00;97586.00;5047062;28;20504;-85
2023/12/25 02:00:37;;;;;;;4.40;1.37;;;9.50;99.90;;;9.96;100.00;97589.03;5048217;28;20511;-85
2023/12/25 02:03:06;;;;;;;5.90;1.40;;;9.50;99.90;;;9.97;100.00;97571.56;5045637;28;20539;-85
2023/12/25 02:05:37;;;;;;;1.30;1.20;;;9.50;99.90;;;9.99;100.00;97577.41;5046863;28;20468;-85
2023/12/25 02:08:13;;;;;;;2.43;1.13;;;9.50;99.90;;;9.99;100.00;97588.69;5046844;28;20476;-85
2023/12/25 02:10:41;;;;;;;1.80;1.10;;;9.60;99.90;;;9.98;100.00;97578.41;5046839;28;20836;-84
2023/12/25 02:13:10;;;;;;;2.23;1.43;;;9.60;99.90;;;9.97;100.00;97595.06;5050182;28;20975;-85
2023/12/25 02:15:39;;;;;;;2.10;1.40;;;9.60;99.90;;;9.96;100.00;97580.41;5051087;28;20477;-85
2023/12/25 02:18:09;;;;;;;1.67;1.10;;;9.60;99.90;;;9.97;100.00;97582.00;5048200;28;20489;-85
2023/12/25 02:20:40;;;;;;;1.27;1.03;;;9.60;99.90;;;9.95;100.00;97582.22;5046167;28;20467;-85
2023/12/25 02:23:15;;;;;;;1.47;1.10;;;9.50;99.90;;;9.94;100.00;97579.78;5052678;28;20473;-85
2023/12/25 02:25:55;;;;;;;1.80;1.20;;;9.60;99.90;;;9.93;100.00;97586.00;5048894;28;20551;-85
2023/12/25 02:28:25;;;;;;;2.43;1.57;;;9.50;99.90;;;9.92;100.00;97600.09;5046501;28;20466;-85
2023/12/25 02:30:53;;;;;;;1.20;1.10;;;9.50;99.90;;;9.95;100.00;97603.13;5047362;28;20472;-85
2023/12/25 02:33:22;;;;;;;5.63;1.60;;;9.60;99.90;;;9.94;100.00;97600.69;5049257;28;20963;-85
2023/12/25 02:35:51;;;;;;;1.87;1.10;;;9.60;99.90;;;9.93;100.00;97607.72;5047309;28;20548;-85
2023/12/25 02:38:19;;;;;;;2.30;1.07;;;9.50;99.90;;;9.96;100.00;97604.72;5049905;28;20504;-85
2023/12/25 02:40:49;;;;;;;11.50;1.50;;;9.50;99.90;;;9.97;100.00;97600.28;5048528;28;20564;-85
2023/12/25 02:43:18;;;;;;;3.53;1.23;;;9.50;99.90;;;9.99;100.00;97593.09;5049758;28;20909;-85
2023/12/25 02:45:46;;;;;;;1.93;0.90;;;9.60;99.90;;;9.99;100.00;97595.69;5049646;28;20823;-85
2023/12/25 02:48:15;;;;;;;3.70;1.60;;;9.70;99.90;;;9.97;100.00;97613.34;5046492;28;20473;-85
2023/12/25 02:50:43;;;;;;;5.37;1.30;;;9.50;99.90;;;9.98;100.00;97602.72;5045288;28;20544;-85
2023/12/25 02:53:12;;;;;;;4.03;1.00;;;9.60;99.90;;;10.00;100.00;97607.75;5048708;28;20468;-85
2023/12/25 02:55:41;;;;;;;7.50;1.40;;;9.50;99.90;;;10.00;100.00;97599.91;5050147;28;20476;-84
2023/12/25 02:58:11;;;;;;;2.60;1.27;;;9.60;99.90;;;10.00;100.00;97600.72;5046649;28;21016;-85
2023/12/25 03:00:39;;;;;;;1.73;0.90;;;9.60;99.90;;;10.01;100.00;97604.94;5046456;28;20463;-85
2023/12/25 03:03:08;;;;;;;1.73;1.30;;;9.60;99.90;;;10.01;100.00;97610.16;5046964;28;20489;-85
2023/12/25 03:05:36;;;;;;;4.10;1.30;;;9.60;99.90;;;10.04;100.00;97616.81;5048111;28;20465;-85
2023/12/25 03:08:05;;;;;;;3.07;1.40;;;9.70;99.90;;;10.07;100.00;97619.03;5047032;28;20561;-84
2023/12/25 03:10:34;;;;;;;2.20;1.43;;;9.60;99.90;;;10.07;100.00;97625.06;5044783;28;20540;-85
2023/12/25 03:13:03;;;;;;;1.80;0.90;;;9.60;99.90;;;10.08;100.00;97612.81;5045789;28;20481;-85
2023/12/25 03:15:33;;;;;;;4.97;1.83;;;9.70;99.90;;;10.09;100.00;97617.03;5045364;28;21134;-84
2023/12/25 03:18:02;;;;;;;6.63;1.10;;;9.70;99.90;;;10.06;100.00;97617.44;5047963;28;20492;-85
2023/12/25 03:20:31;;;;;;;4.23;1.67;;;9.70;99.90;;;10.05;100.00;97621.03;5047240;28;20475;-85
2023/12/25 03:22:59;;;;;;;3.37;1.20;;;9.70;99.90;;;10.07;100.00;97613.81;5047991;28;20551;-84
2023/12/25 03:25:28;;;;;;;5.60;1.43;;;9.60;99.90;;;10.07;100.00;97619.03;5045170;28;20467;-85
2023/12/25 03:27:56;;;;;;;3.43;1.47;;;9.70;99.90;;;10.07;100.00;97605.97;5051829;28;20464;-84
2023/12/25 03:30:25;;;;;;;1.53;1.20;;;9.60;99.90;;;10.08;100.00;97618.03;5046729;28;20465;-85
2023/12/25 03:32:55;;;;;;;3.27;1.33;;;9.60;99.90;;;10.06;100.00;97618.25;5047854;28;20473;-84
2023/12/25 03:35:23;;;;;;;2.27;0.90;;;9.70;99.90;;;10.08;100.00;97615.41;5047836;28;20544;-84
2023/12/25 03:37:52;;;;;;;5.43;1.23;;;9.70;99.90;;;10.09;100.00;97617.03;5046607;28;20501;-86
2023/12/25 03:40:21;;;;;;;8.63;1.30;;;9.70;99.90;;;10.04;100.00;97622.84;5045457;28;20511;-85
2023/12/25 03:42:49;;;;;;;4.00;1.37;;;9.60;99.90;;;10.06;100.00;97620.84;5048428;28;20472;-84
2023/12/25 03:45:18;;;;;;;3.90;1.27;;;9.60;99.90;;;10.06;100.00;97618.25;5048434;28;21463;-85
2023/12/25 03:47:47;;;;;;;8.67;1.23;;;9.70;99.90;;;10.09;100.00;97624.88;5046953;28;20457;-85
2023/12/25 03:50:17;;;;;;;2.30;1.30;;;9.60;99.90;;;10.07;100.00;97621.63;5048105;28;20465;-85
2023/12/25 03:52:45;;;;;;;4.10;1.43;;;9.70;99.90;;;10.09;100.00;97619.66;5047958;28;20880;-84
2023/12/25 03:55:14;;;;;;;3.83;1.40;;;9.70;99.90;;;10.08;100.00;97603.16;5047663;28;21127;-85
2023/12/25 03:57:43;;;;;;;1.83;1.13;;;9.70;99.90;;;10.08;100.00;97604.97;5046631;28;20503;-85
2023/12/25 04:00:12;;;;;;;2.20;1.00;;;9.70;99.90;;;10.08;100.00;97610.19;5044218;28;20466;-85
2023/12/25 04:02:41;;;;;;;2.50;1.00;;;9.70;99.90;;;10.04;100.00;97598.53;5043922;28;20461;-84
2023/12/25 04:05:10;;;;;;;2.63;1.10;;;9.60;99.90;;;10.07;100.00;97598.13;5045790;28;21020;-82
2023/12/25 04:07:40;;;;;;;6.30;2.90;;;9.60;99.90;;;10.08;100.00;97594.53;5044072;28;20588;-84
2023/12/25 04:10:10;;;;;;;5.03;1.50;;;9.60;99.90;;;10.08;100.00;97589.28;5043204;28;20464;-85
2023/12/25 04:12:39;;;;;;;1.00;0.90;;;9.50;99.90;;;10.05;100.00;97589.69;5047567;28;20920;-85
2023/12/25 04:15:08;;;;;;;3.00;1.20;;;9.50;99.90;;;10.06;100.00;97593.94;5048725;28;20689;-85
2023/12/25 04:17:37;;;;;;;78.77;33.97;;;9.60;99.90;;;10.06;100.00;97593.94;5040048;28;20495;-82
2023/12/25 04:20:07;;;;;;;1.50;0.90;;;9.60;99.90;;;10.03;100.00;97596.94;5047819;28;20476;-86
2023/12/25 04:22:36;;;;;;;0.97;0.70;;;9.60;99.90;;;10.03;100.00;97589.88;5048435;28;20457;-86
2023/12/25 04:25:09;;;;;;;0.80;0.73;;;9.60;99.90;;;10.07;100.00;97600.75;5049271;28;20473;-85
2023/12/25 04:27:44;;;;;;;12.90;5.67;;;9.60;99.90;;;10.05;100.00;97579.25;5049588;28;20465;-82
2023/12/25 04:30:14;;;;;;;2.87;1.33;;;9.60;99.90;;;10.06;100.00;97576.44;5044288;28;20469;-86
2023/12/25 04:32:42;;;;;;;1.23;0.80;;;9.60;99.90;;;10.07;100.00;97582.44;5045300;28;20508;-87
2023/12/25 04:35:11;;;;;;;1.00;0.70;;;9.60;99.90;;;10.09;100.00;97583.09;5046629;28;20465;-78
2023/12/25 04:37:40;;;;;;;1.60;0.87;;;9.60;99.90;;;10.06;100.00;97576.44;5047977;28;21009;-79
2023/12/25 04:40:11;;;;;;;1.17;0.90;;;9.50;99.90;;;10.05;100.00;97571.41;5051250;28;20449;-79
2023/12/25 04:42:40;;;;;;;0.80;0.70;;;9.60;99.90;;;10.06;100.00;97579.06;5049880;28;20464;-79
2023/12/25 04:45:10;;;;;;;1.93;0.90;;;9.50;99.90;;;10.03;100.00;97587.25;5051199;28;20456;-79
2023/12/25 04:47:38;;;;;;;1.30;0.93;;;9.50;99.90;;;10.05;100.00;97581.84;5048298;28;20523;-79
2023/12/25 04:50:08;;;;;;;0.80;0.80;;;9.60;99.90;;;10.01;100.00;97581.44;5047977;28;20469;-79
2023/12/25 04:52:36;;;;;;;1.00;0.80;;;9.50;99.90;;;9.99;100.00;97572.19;5047878;28;20465;-79
2023/12/25 04:55:05;;;;;;;0.77;0.73;;;9.40;99.90;;;10.00;100.00;97569.38;5053383;28;20556;-79
2023/12/25 04:57:35;;;;;;;1.00;0.73;;;9.50;99.90;;;9.97;100.00;97558.50;5051122;28;20461;-79
2023/12/25 05:00:05;;;;;;;1.07;0.80;;;9.50;99.90;;;9.99;100.00;97556.53;5048766;28;20449;-79
2023/12/25 05:02:33;;;;;;;1.70;0.83;;;9.50;99.90;;;9.99;100.00;97556.53;5050787;28;20491;-79
2023/12/25 05:05:02;;;;;;;2.80;1.10;;;9.50;99.90;;;9.99;100.00;97572.19;5049494;28;20542;-78
2023/12/25 05:07:31;;;;;;;2.97;1.40;;;9.60;99.90;;;9.95;100.00;97576.19;5046727;28;20476;-79
2023/12/25 05:09:59;;;;;;;0.80;0.77;;;9.60;99.90;;;9.98;100.00;97565.34;5048749;28;20465;-79
2023/12/25 05:12:28;;;;;;;0.80;0.80;;;9.50;99.90;;;9.93;100.00;97565.13;5046155;28;20468;-78
2023/12/25 05:14:57;;;;;;;1.10;0.80;;;9.40;99.90;;;9.95;100.00;97570.97;5048954;28;20805;-78
2023/12/25 05:17:26;;;;;;;5.83;1.00;;;9.50;99.90;;;9.96;100.00;97572.59;5048508;28;21070;-78
2023/12/25 05:19:55;;;;;;;1.60;0.80;;;9.40;99.90;;;9.93;100.00;97565.13;5049510;28;20529;-78
2023/12/25 05:22:23;;;;;;;2.03;0.80;;;9.40;99.90;;;9.93;100.00;97562.50;5049064;28;20466;-79
2023/12/25 05:24:52;;;;;;;2.80;0.77;;;9.40;99.90;;;9.90;100.00;97562.91;5048966;28;20500;-78
2023/12/25 05:27:20;;;;;;;2.30;0.90;;;9.30;99.90;;;9.92;100.00;97566.13;5048660;28;20469;-79
2023/12/25 05:29:48;;;;;;;0.80;0.80;;;9.50;99.90;;;9.90;100.00;97563.69;5048765;28;20760;-79
2023/12/25 05:32:18;;;;;;;2.30;0.80;;;9.60;99.90;;;9.90;100.00;97568.94;5047595;28;21328;-78
2023/12/25 05:34:47;;;;;;;4.97;1.40;;;9.60;99.90;;;9.89;100.00;97566.53;5048997;28;21168;-78
2023/12/25 05:37:15;;;;;;;4.30;1.07;;;9.50;99.90;;;9.91;100.00;97575.78;5047226;28;20461;-79
2023/12/25 05:39:44;;;;;;;7.17;0.87;;;9.50;99.90;;;9.92;100.00;97573.97;5051422;28;21027;-78
2023/12/25 05:42:12;;;;;;;4.33;1.07;;;9.50;99.90;;;9.87;100.00;97584.19;5045271;28;20911;-79
2023/12/25 05:44:41;;;;;;;2.00;1.10;;;9.50;99.90;;;9.84;100.00;97582.75;5048340;28;20944;-77
2023/12/25 05:47:09;;;;;;;4.43;1.20;;;9.50;99.90;;;9.86;100.00;97585.97;5048049;28;20540;-78
2023/12/25 05:49:40;;;;;;;1.93;1.20;;;9.50;99.90;;;9.85;100.00;97591.41;5047456;28;20476;-77
2023/12/25 05:52:09;;;;;;;2.00;1.30;;;9.40;99.90;;;9.87;100.00;97602.47;5047285;28;20469;-79
2023/12/25 05:54:37;;;;;;;2.43;1.13;;;9.40;99.90;;;9.87;100.00;97599.84;5046535;28;20496;-79
2023/12/25 05:57:06;;;;;;;1.77;1.10;;;9.50;99.90;;;9.84;100.00;97600.22;5043891;28;20461;-79
2023/12/25 05:59:35;;;;;;;1.20;1.00;;;9.40;99.90;;;9.89;100.00;97597.88;5046303;28;20500;-78
2023/12/25 06:02:04;;;;;;;2.27;1.17;;;9.40;99.90;;;9.86;100.00;97591.19;5042130;28;20489;-81
2023/12/25 06:04:32;;;;;;;9.60;3.97;;;9.40;99.90;;;9.90;100.00;97589.00;5043335;28;21173;-79
2023/12/25 06:07:02;;;;;;;3.43;1.20;;;9.50;99.90;;;9.83;100.00;97588.97;5042595;28;20566;-79
2023/12/25 06:09:31;;;;;;;5.27;1.50;;;9.40;99.90;;;9.87;100.00;97602.47;5045215;28;20468;-79
2023/12/25 06:12:00;;;;;;;4.43;1.07;;;9.40;99.90;;;9.86;100.00;97601.66;5042034;28;20469;-79
2023/12/25 06:14:28;;;;;;;1.53;1.00;;;9.40;99.90;;;9.86;100.00;97600.84;5044843;28;20959;-79
2023/12/25 06:16:59;;;;;;;1.27;1.10;;;9.40;99.90;;;9.84;100.00;97597.63;5045260;28;20489;-78
2023/12/25 06:19:27;;;;;;;1.60;1.00;;;9.50;99.90;;;9.84;100.00;97606.28;5045429;28;20499;-79
2023/12/25 06:21:56;;;;;;;2.10;0.90;;;9.40;99.90;;;9.83;100.00;97607.25;5044841;28;20466;-78
2023/12/25 06:24:26;;;;;;;1.60;0.90;;;9.40;99.90;;;9.83;100.00;97609.06;5045060;28;20465;-78
2023/12/25 06:26:54;;;;;;;1.30;0.70;;;9.50;99.90;;;9.84;100.00;97610.69;5044678;28;20836;-79
2023/12/25 06:29:23;;;;;;;3.37;0.97;;;9.40;99.90;;;9.77;100.00;97599.38;5043369;28;20976;-78
2023/12/25 06:31:51;;;;;;;1.23;0.80;;;9.40;99.90;;;9.77;100.00;97594.97;5046223;28;20481;-79
2023/12/25 06:34:20;;;;;;;1.40;0.90;;;9.30;99.90;;;9.82;100.00;97597.81;5044980;28;20465;-78
2023/12/25 06:36:48;;;;;;;2.30;0.90;;;9.40;99.90;;;9.83;100.00;97599.44;5043333;28;20552;-78
2023/12/25 06:39:17;;;;;;;1.00;0.87;;;9.40;99.90;;;9.85;100.00;97596.63;5043725;28;20512;-78
2023/12/25 06:41:47;;;;;;;3.37;0.90;;;9.40;99.90;;;9.81;100.00;97606.66;5045499;28;20468;-78
2023/12/25 06:44:16;;;;;;;1.20;0.80;;;9.30;99.90;;;9.85;100.00;97599.25;5046840;28;20465;-77
2023/12/25 06:46:44;;;;;;;1.20;0.90;;;9.30;99.90;;;9.83;100.00;97594.19;5045474;28;20461;-80
2023/12/25 06:49:13;;;;;;;0.90;0.80;;;9.40;99.90;;;9.81;100.00;97603.25;5047547;28;20550;-80
2023/12/25 06:51:44;;;;;;;1.20;0.90;;;9.30;99.90;;;9.81;100.00;97611.06;5045959;28;20504;-79
2023/12/25 06:54:13;;;;;;;2.03;0.83;;;9.40;99.90;;;9.75;100.00;97597.00;5044290;28;20495;-79
2023/12/25 06:56:41;;;;;;;16.23;7.50;;;9.40;99.90;;;9.73;100.00;97609.41;5044037;28;20491;-76
2023/12/25 06:59:11;;;;;;;1.37;0.90;;;9.30;99.90;;;9.73;100.00;97609.41;5045734;28;20489;-79
2023/12/25 07:01:40;;;;;;;1.03;0.70;;;9.30;99.90;;;9.74;100.00;97605.00;5044593;28;21386;-79
2023/12/25 07:04:10;;;;;;;0.77;0.70;;;9.30;99.90;;;9.74;100.00;97621.47;5043365;28;20554;-79
2023/12/25 07:06:40;;;;;;;0.80;0.70;;;9.30;99.90;;;9.75;100.00;97614.47;5043129;28;20555;-80
2023/12/25 07:09:13;;;;;;;0.97;0.80;;;9.30;99.90;;;9.73;100.00;97616.44;5040866;28;20465;-79
2023/12/25 07:11:43;;;;;;;0.97;0.80;;;9.20;99.90;;;9.79;100.00;97623.53;5044003;28;20602;-79
2023/12/25 07:14:14;;;;;;;1.43;0.90;;;9.30;99.90;;;9.77;100.00;97622.91;5043640;28;20461;-80
2023/12/25 07:16:42;;;;;;;0.80;0.73;;;9.40;99.90;;;9.75;100.00;97627.50;5041672;28;20468;-80
2023/12/25 07:19:11;;;;;;;1.37;0.83;;;9.50;99.90;;;9.77;100.00;97630.72;5045654;28;21084;-79
2023/12/25 07:21:41;;;;;;;0.83;0.80;;;9.40;99.90;;;9.75;100.00;97633.53;5043114;28;20841;-80
2023/12/25 07:24:09;;;;;;;0.93;0.80;;;9.40;99.90;;;9.75;100.00;97622.28;5046264;28;20461;-79
2023/12/25 07:26:38;;;;;;;0.83;0.80;;;9.40;99.90;;;9.74;100.00;97641.56;5046675;28;21075;-79
2023/12/25 07:29:06;;;;;;;1.00;0.73;;;9.40;99.90;;;9.72;100.00;97646.94;5045975;28;20453;-79
2023/12/25 07:31:36;;;;;;;0.90;0.80;;;9.40;99.90;;;9.74;100.00;97631.13;5045717;28;20464;-79
2023/12/25 07:34:04;;;;;;;1.00;0.80;;;9.30;99.90;;;9.75;100.00;97633.53;5047473;28;20496;-79
2023/12/25 07:36:33;;;;;;;1.33;0.90;;;9.30;99.90;;;9.77;100.00;97643.78;5046457;28;20465;-79
2023/12/25 07:39:02;;;;;;;0.70;0.70;;;9.30;99.90;;;9.77;100.00;97651.63;5043362;28;20514;-80
2023/12/25 07:41:30;;;;;;;2.07;0.80;;;9.40;99.90;;;9.75;100.00;97640.56;5044885;28;20500;-79
2023/12/25 07:44:00;;;;;;;1.00;0.90;;;9.40;99.90;;;9.75;100.00;97648.41;5041084;28;20456;-80
2023/12/25 07:46:29;;;;;;;0.80;0.70;;;9.30;99.90;;;9.75;100.00;97635.34;5042541;28;21014;-78
2023/12/25 07:48:59;;;;;;;0.93;0.80;;;9.40;99.90;;;9.71;100.00;97634.91;5043415;28;20515;-81
2023/12/25 07:51:27;;;;;;;1.20;0.73;;;9.40;99.90;;;9.73;100.00;97640.75;5045787;28;21020;-79
2023/12/25 07:53:55;;;;;;;0.70;0.60;;;9.40;99.90;;;9.74;100.00;97641.56;5045793;28;20940;-79
2023/12/25 07:56:24;;;;;;;0.70;0.70;;;9.40;99.90;;;9.76;100.00;97644.78;5044106;28;20469;-79
2023/12/25 07:58:53;;;;;;;0.70;0.60;;;9.40;99.90;;;9.76;100.00;97640.34;5045563;28;20468;-79
2023/12/25 08:01:22;;;;;;;0.90;0.70;;;9.30;99.90;;;9.78;100.00;97654.03;5043311;28;20499;-79
2023/12/25 08:03:51;;;;;;;1.53;0.70;;;9.40;99.90;;;9.74;100.00;97647.59;5045761;28;21154;-79
2023/12/25 08:06:22;;;;;;;0.90;0.80;;;9.40;99.90;;;9.72;100.00;97659.22;5045618;28;20498;-79
2023/12/25 08:08:52;;;;;;;2.30;0.70;;;9.20;99.90;;;9.73;100.00;97671.25;5042227;28;20932;-79
2023/12/25 08:11:20;;;;;;;0.90;0.60;;;9.30;99.90;;;9.71;100.00;97673.28;5045269;28;20471;-79
2023/12/25 08:13:52;;;;;;;0.80;0.73;;;9.30;99.90;;;9.69;100.00;97665.63;5044817;28;20468;-79
2023/12/25 08:16:21;;;;;;;1.10;0.70;;;9.20;99.90;;;9.74;100.00;97662.44;5043593;28;20555;-79
2023/12/25 08:18:50;;;;;;;0.70;0.60;;;9.30;99.90;;;9.72;100.00;97657.41;5047159;28;20848;-80
2023/12/25 08:21:20;;;;;;;1.00;0.67;;;9.30;99.90;;;9.73;100.00;97658.22;5044954;28;20497;-79
2023/12/25 08:23:50;;;;;;;0.70;0.70;;;9.30;99.90;;;9.74;100.00;97668.47;5044695;28;20461;-79
2023/12/25 08:26:19;;;;;;;0.80;0.70;;;9.30;99.90;;;9.77;100.00;97665.47;5039499;28;20453;-79
2023/12/25 08:28:50;;;;;;;1.23;0.70;;;9.30;99.90;;;9.71;100.00;97666.25;5039164;28;20457;-79
2023/12/25 08:31:19;;;;;;;1.13;0.70;;;9.30;99.90;;;9.72;100.00;97680.91;5042808;28;21021;-79
2023/12/25 08:33:48;;;;;;;5.80;3.43;;;9.30;99.90;;;9.75;100.00;97664.06;5044022;28;20457;-80
2023/12/25 08:36:16;;;;;;;3.73;0.90;;;9.30;99.90;;;9.78;100.00;97681.97;5043620;28;20460;-80
2023/12/25 08:38:45;;;;;;;0.83;0.70;;;9.30;99.90;;;9.77;100.00;97681.16;5040537;28;20964;-80
2023/12/25 08:41:15;;;;;;;0.90;0.60;;;9.30;99.90;;;9.75;100.00;97677.13;5044396;28;21305;-79
2023/12/25 08:43:43;;;;;;;0.70;0.60;;;9.40;99.90;;;9.74;100.00;97680.72;5043752;28;21305;-79
2023/12/25 08:46:18;;;;;;;0.80;0.60;;;9.30;99.90;;;9.76;100.00;97678.72;5042849;28;20955;-79
2023/12/25 08:48:48;;;;;;;0.70;0.60;;;9.40;99.90;;;9.73;100.00;97684.31;5044490;28;20466;-79
2023/12/25 08:51:16;;;;;;;1.27;0.70;;;9.30;99.90;;;9.73;100.00;97692.97;5042130;28;21000;-79
2023/12/25 08:53:45;;;;;;;0.80;0.73;;;9.30;99.90;;;9.76;100.00;97683.94;5044439;28;20469;-79
2023/12/25 08:56:24;;;;;;;0.80;0.70;;;9.20;99.90;;;9.79;100.00;97689.59;5043090;28;20485;-79
2023/12/25 08:58:53;;;;;;;0.90;0.77;;;9.30;99.90;;;9.78;100.00;97692.41;5048357;28;20511;-79
2023/12/25 09:01:24;;;;;;;0.70;0.60;;;9.30;99.90;;;9.80;100.00;97698.22;5046950;28;20496;-80
2023/12/25 09:03:53;;;;;;;0.70;0.60;;;9.40;99.90;;;9.80;100.00;97698.22;5045740;28;20483;-79
2023/12/25 09:06:21;;;;;;;0.73;0.70;;;9.30;99.90;;;9.82;100.00;97696.25;5043325;28;20880;-80
2023/12/25 09:08:51;;;;;;;0.70;0.70;;;9.40;99.90;;;9.81;100.00;97699.84;5049258;28;20504;-80
2023/12/25 09:11:21;;;;;;;1.07;0.70;;;9.40;99.90;;;9.80;100.00;97700.84;5044504;28;20572;-80
2023/12/25 09:13:49;;;;;;;0.80;0.70;;;9.40;99.90;;;9.82;100.00;97717.13;5046343;28;20850;-80
2023/12/25 09:16:18;;;;;;;0.70;0.60;;;9.30;99.90;;;9.77;100.00;97698.59;5045584;28;20469;-79
2023/12/25 09:18:46;;;;;;;0.70;0.60;;;9.40;99.90;;;9.76;100.00;97707.44;5044223;28;20473;-80
2023/12/25 09:21:17;;;;;;;0.70;0.60;;;9.30;99.90;;;9.76;100.00;97704.81;5043097;28;21125;-81
2023/12/25 09:23:45;;;;;;;0.70;0.60;;;9.30;99.90;;;9.78;100.00;97700.22;5046696;28;20465;-80
2023/12/25 09:26:20;;;;;;;1.03;0.83;;;9.40;99.90;;;9.74;100.00;97699.81;5045503;28;20457;-78
2023/12/25 09:28:50;;;;;;;1.13;0.70;;;9.30;99.90;;;9.80;100.00;97709.47;5044813;28;20472;-80
2023/12/25 09:31:19;;;;;;;0.90;0.60;;;9.30;99.90;;;9.75;100.00;97714.47;5049021;28;20458;-80
2023/12/25 09:33:48;;;;;;;1.10;0.70;;;9.30;99.90;;;9.72;100.00;97720.06;5051184;28;20461;-79
2023/12/25 09:36:17;;;;;;;0.70;0.70;;;9.10;99.90;;;9.74;100.00;97719.88;5047451;28;20500;-80
2023/12/25 09:38:45;;;;;;;0.80;0.70;;;9.30;99.90;;;9.78;100.00;97715.91;5051365;28;20465;-80
2023/12/25 09:41:16;;;;;;;0.80;0.70;;;9.30;99.90;;;9.79;100.00;97723.53;5047894;28;20496;-81
2023/12/25 09:43:48;;;;;;;0.70;0.60;;;9.30;99.90;;;9.80;100.00;97726.94;5047776;28;20550;-80
2023/12/25 09:46:19;;;;;;;0.70;0.60;;;9.30;99.90;;;9.84;100.00;97736.03;5047518;28;20457;-80
2023/12/25 09:48:48;;;;;;;0.70;0.70;;;9.40;99.90;;;9.84;100.00;97729.00;5047979;28;20815;-82
2023/12/25 09:51:19;;;;;;;0.70;0.60;;;9.40;99.90;;;9.81;100.00;97725.97;5049542;28;21299;-79
2023/12/25 09:53:47;;;;;;;15.47;8.30;;;9.50;99.90;;;9.84;100.00;97730.81;5049326;28;20543;-81
2023/12/25 09:56:19;;;;;;;1.00;0.80;;;9.40;99.90;;;9.84;100.00;97730.81;5048634;28;20493;-80
2023/12/25 09:58:50;;;;;;;0.70;0.60;;;9.50;99.90;;;9.84;100.00;97734.22;5049885;28;20457;-80
2023/12/25 10:01:18;;;;;;;0.70;0.60;;;9.50;99.90;;;9.84;100.00;97733.41;5048138;28;20619;-81
2023/12/25 10:03:48;;;;;;;0.70;0.70;;;9.50;99.90;;;9.82;100.00;97738.81;5050424;28;20525;-80
2023/12/25 10:06:16;;;;;;;0.90;0.70;;;9.50;99.90;;;9.83;100.00;97743.03;5050887;28;20980;-80
2023/12/25 10:08:45;;;;;;;0.70;0.70;;;9.50;99.90;;;9.85;100.00;97738.47;5050668;28;20473;-79
2023/12/25 10:11:14;;;;;;;9.80;1.00;;;9.50;99.90;;;9.84;100.00;97746.47;5050231;28;20560;-82
2023/12/25 10:13:44;;;;;;;1.20;1.00;;;9.40;99.90;;;9.88;100.00;97737.25;5049364;28;20494;-80
2023/12/25 10:16:13;;;;;;;0.70;0.70;;;9.50;99.90;;;9.86;100.00;97734.00;5047025;28;21455;-80
2023/12/25 10:18:42;;;;;;;0.70;0.60;;;9.40;99.90;;;9.91;100.00;97736.88;5047558;28;20511;-80
2023/12/25 10:21:11;;;;;;;1.17;0.70;;;9.40;99.90;;;9.93;100.00;97740.91;5048123;28;20485;-79
2023/12/25 10:23:39;;;;;;;1.10;0.70;;;9.50;99.90;;;9.93;100.00;97743.53;5046528;28;20461;-82
2023/12/25 10:26:09;;;;;;;6.23;0.80;;;9.50;99.90;;;9.95;100.00;97735.50;5046871;28;20460;-80
2023/12/25 10:28:38;;;;;;;28.73;14.90;;;9.60;99.90;;;9.97;100.00;97736.91;5047165;28;20515;-76
2023/12/25 10:31:08;;;;;;;2.07;0.90;;;9.60;99.90;;;9.91;100.00;97732.47;5046477;28;20971;-80
2023/12/25 10:33:38;;;;;;;1.30;0.70;;;9.50;99.90;;;9.89;100.00;97729.22;5048377;28;21041;-79